LWSK/SKP METAR and TAF weather

Enter ICAO airport designator
Station Type Date Time Source
LWSK METAR 2019/08/23 15:30 UTC NOAA

LWSK 231530Z 03005KT 9999 -RA FEW050 SCT100 31/18 Q1018 NOSIG


Station Type Date Time Source
LWSK Decoded METAR 2019/08/23 15:30 UTC NOAA

Station name not available
Aug 23, 2019 - 11:30 AM EDT / 2019.08.23 1530 UTC
Wind: from the NNE (030 degrees) at 6 MPH (5 KT):0
Visibility: greater than 7 mile(s):0
Sky conditions: partly cloudy
Weather: light rain
Temperature: 87 F (31 C)
Dew Point: 64 F (18 C)
Relative Humidity: 45%
Pressure (altimeter): 30.06 in. Hg (1018 hPa)
ob: LWSK 231530Z 03005KT 9999 -RA FEW050 SCT100 31/18 Q1018 NOSIG
cycle: 15

Station Type Date Time Source
LWSK TAF 2019/08/23 15:15 UTC NOAA

TAF LWSK 231430Z 2315/2415 VRB02KT 9999 FEW050

Example: see airport list